createdAt,value
2023-07-24T00:00:00.157Z,23.60
2023-07-24T00:02:27.259Z,23.60
2023-07-24T00:04:54.080Z,23.56
2023-07-24T00:07:20.858Z,23.56
2023-07-24T00:09:47.614Z,23.54
2023-07-24T00:12:14.498Z,23.50
2023-07-24T00:14:41.209Z,23.48
2023-07-24T00:17:08.194Z,23.44
2023-07-24T00:19:34.972Z,23.40
2023-07-24T00:22:01.787Z,23.39
2023-07-24T00:24:28.557Z,23.36
2023-07-24T00:26:55.428Z,23.33
2023-07-24T00:29:22.214Z,23.28
2023-07-24T00:31:48.937Z,23.27
2023-07-24T00:34:15.760Z,23.25
2023-07-24T00:36:42.508Z,23.24
2023-07-24T00:39:09.200Z,23.19
2023-07-24T00:41:35.955Z,23.17
2023-07-24T00:44:02.719Z,23.18
2023-07-24T00:46:33.895Z,23.17
2023-07-24T00:49:02.185Z,23.14
2023-07-24T00:51:31.416Z,23.10
2023-07-24T00:53:59.190Z,23.08
2023-07-24T00:56:25.937Z,23.04
2023-07-24T00:58:56.803Z,23.04
2023-07-24T01:01:23.699Z,23.00
2023-07-24T01:03:51.115Z,22.96
2023-07-24T01:06:17.854Z,22.96
2023-07-24T01:08:44.597Z,22.96
2023-07-24T01:11:17.371Z,22.91
2023-07-24T01:13:46.319Z,22.69
2023-07-24T01:16:19.815Z,22.83
2023-07-24T01:18:46.902Z,22.84
2023-07-24T01:21:15.049Z,22.83
2023-07-24T01:24:07.671Z,22.69
2023-07-24T01:26:34.443Z,22.74
2023-07-24T01:29:01.207Z,22.73
2023-07-24T01:31:28.329Z,22.68
2023-07-24T01:33:55.108Z,22.64
2023-07-24T01:36:21.986Z,22.63
2023-07-24T01:38:50.788Z,22.61
2023-07-24T01:41:18.004Z,22.60
2023-07-24T01:43:44.769Z,22.60
2023-07-24T01:46:11.724Z,22.58
2023-07-24T01:48:38.491Z,22.58
2023-07-24T01:51:05.281Z,22.59
2023-07-24T01:53:32.059Z,22.58
2023-07-24T01:55:59.762Z,22.59
2023-07-24T01:58:26.560Z,22.59
2023-07-24T02:00:56.577Z,22.59
2023-07-24T02:03:23.407Z,22.58
2023-07-24T02:05:51.880Z,22.59
2023-07-24T02:08:18.904Z,22.58
2023-07-24T02:10:49.824Z,22.55
2023-07-24T02:13:16.563Z,22.57
2023-07-24T02:15:49.198Z,22.56
2023-07-24T02:18:16.021Z,22.57
2023-07-24T02:20:42.813Z,22.53
2023-07-24T02:23:10.074Z,22.53
2023-07-24T02:25:37.030Z,22.50
2023-07-24T02:28:03.821Z,22.49
2023-07-24T02:30:30.777Z,22.46
2023-07-24T02:32:58.235Z,22.45
2023-07-24T02:35:25.126Z,22.42
2023-07-24T02:37:51.847Z,22.39
2023-07-24T02:40:18.646Z,22.40
2023-07-24T02:42:45.408Z,22.35
2023-07-24T02:45:13.032Z,22.31
2023-07-24T02:47:39.817Z,22.32
2023-07-24T02:50:06.945Z,22.29
2023-07-24T02:52:33.725Z,22.29
2023-07-24T02:55:00.538Z,22.29
2023-07-24T02:57:27.278Z,22.28
2023-07-24T02:59:54.181Z,22.29
2023-07-24T03:02:21.104Z,22.28
2023-07-24T03:04:47.855Z,22.25
2023-07-24T03:07:14.627Z,22.26
2023-07-24T03:09:41.447Z,22.24
2023-07-24T03:12:08.342Z,22.24
2023-07-24T03:14:35.047Z,22.25
2023-07-24T03:17:03.438Z,22.24
2023-07-24T03:19:30.544Z,22.22
2023-07-24T03:21:57.272Z,22.22
2023-07-24T03:24:24.097Z,22.19
2023-07-24T03:26:50.934Z,22.18
2023-07-24T03:29:17.660Z,22.15
2023-07-24T03:31:44.471Z,22.16
2023-07-24T03:34:11.256Z,22.16
2023-07-24T03:36:42.285Z,22.15
2023-07-24T03:39:12.813Z,22.11
2023-07-24T03:41:40.294Z,22.13
2023-07-24T03:44:07.016Z,22.11
2023-07-24T03:46:34.140Z,22.07
2023-07-24T03:49:00.978Z,22.06
2023-07-24T03:51:28.055Z,22.07
2023-07-24T03:53:55.245Z,22.06
2023-07-24T03:56:22.035Z,22.05
2023-07-24T03:58:48.834Z,22.01
2023-07-24T04:01:15.697Z,22.03
2023-07-24T04:03:42.445Z,22.03
2023-07-24T04:06:09.204Z,22.03
2023-07-24T04:08:35.947Z,22.02
2023-07-24T04:11:02.810Z,21.99
2023-07-24T04:13:29.798Z,22.02
2023-07-24T04:15:58.547Z,22.00
2023-07-24T04:18:25.317Z,22.03
2023-07-24T04:20:52.114Z,22.00
2023-07-24T04:23:18.908Z,22.03
2023-07-24T04:25:45.710Z,22.00
2023-07-24T04:28:12.550Z,22.02
2023-07-24T04:30:39.579Z,22.04
2023-07-24T04:33:06.541Z,22.04
2023-07-24T04:35:33.405Z,22.05
2023-07-24T04:38:00.103Z,22.07
2023-07-24T04:40:26.876Z,22.19
2023-07-24T04:42:53.765Z,22.33
2023-07-24T04:45:23.759Z,22.40
2023-07-24T04:47:51.082Z,22.39
2023-07-24T04:50:17.904Z,22.33
2023-07-24T04:52:44.860Z,22.27
2023-07-24T04:55:11.868Z,22.27
2023-07-24T04:57:38.666Z,22.24
2023-07-24T05:00:06.286Z,22.22
2023-07-24T05:02:32.989Z,22.22
2023-07-24T05:04:59.739Z,22.20
2023-07-24T05:07:26.703Z,22.19
2023-07-24T05:09:53.442Z,22.18
2023-07-24T05:12:20.399Z,22.20
2023-07-24T05:14:47.084Z,22.20
2023-07-24T05:17:13.910Z,22.19
2023-07-24T05:19:40.745Z,22.19
2023-07-24T05:22:07.507Z,22.18
2023-07-24T05:24:34.565Z,22.18
2023-07-24T05:27:01.385Z,22.17
2023-07-24T05:29:28.113Z,22.19
2023-07-24T05:31:55.140Z,22.16
2023-07-24T05:34:22.194Z,22.17
2023-07-24T05:36:48.948Z,22.17
2023-07-24T05:39:15.723Z,22.15
2023-07-24T05:41:42.508Z,22.15
2023-07-24T05:44:09.322Z,22.13
2023-07-24T05:46:36.132Z,22.14
2023-07-24T05:49:03.001Z,22.12
2023-07-24T05:51:29.854Z,22.09
2023-07-24T05:53:56.613Z,22.11
2023-07-24T05:56:23.414Z,22.09
2023-07-24T05:58:50.926Z,22.08
2023-07-24T06:01:17.689Z,22.07
2023-07-24T06:03:44.620Z,22.06
2023-07-24T06:06:11.446Z,22.06
2023-07-24T06:08:38.176Z,22.06
2023-07-24T06:11:04.935Z,22.08
2023-07-24T06:13:31.686Z,22.06
2023-07-24T06:15:58.552Z,22.05
2023-07-24T06:18:25.408Z,22.07
2023-07-24T06:20:55.630Z,22.08
2023-07-24T06:23:22.442Z,22.09
2023-07-24T06:25:49.285Z,22.11
2023-07-24T06:28:16.068Z,22.11
2023-07-24T06:30:43.012Z,22.11
2023-07-24T06:33:09.777Z,22.14
2023-07-24T06:35:36.793Z,22.11
2023-07-24T06:38:03.576Z,22.14
2023-07-24T06:40:30.339Z,22.15
2023-07-24T06:42:57.083Z,22.15
2023-07-24T06:45:23.929Z,22.16
2023-07-24T06:47:50.729Z,22.20
2023-07-24T06:50:17.435Z,22.21
2023-07-24T06:52:44.140Z,22.25
2023-07-24T06:55:10.956Z,22.24
2023-07-24T06:57:37.654Z,22.27
2023-07-24T07:00:04.568Z,22.31
2023-07-24T07:02:32.305Z,22.35
2023-07-24T07:04:59.118Z,22.39
2023-07-24T07:07:25.956Z,22.40
2023-07-24T07:09:52.704Z,22.47
2023-07-24T07:12:22.024Z,22.49
2023-07-24T07:14:49.036Z,22.52
2023-07-24T07:17:15.862Z,22.53
2023-07-24T07:19:42.626Z,22.57
2023-07-24T07:22:09.437Z,22.60
2023-07-24T07:24:36.229Z,22.63
2023-07-24T07:27:02.985Z,22.69
2023-07-24T07:29:29.689Z,22.74
2023-07-24T07:31:56.415Z,22.78
2023-07-24T07:34:23.198Z,22.79
2023-07-24T07:36:50.012Z,22.81
2023-07-24T07:39:16.796Z,22.82
2023-07-24T07:41:43.569Z,22.82
2023-07-24T07:44:10.297Z,22.85
2023-07-24T07:46:37.056Z,22.84
2023-07-24T07:49:03.828Z,22.81
2023-07-24T07:51:30.757Z,22.78
2023-07-24T07:53:57.515Z,22.77
2023-07-24T07:56:24.258Z,22.74
2023-07-24T07:58:51.058Z,22.72
2023-07-24T08:01:17.994Z,22.73
2023-07-24T08:03:44.887Z,22.74
2023-07-24T08:06:11.672Z,22.75
2023-07-24T08:08:38.453Z,22.74
2023-07-24T08:11:08.582Z,22.75
2023-07-24T08:13:35.802Z,22.72
2023-07-24T08:16:04.217Z,22.67
2023-07-24T08:18:31.747Z,22.66
2023-07-24T08:20:58.602Z,22.62
2023-07-24T08:23:25.345Z,22.57
2023-07-24T08:25:53.841Z,22.56
2023-07-24T08:28:21.080Z,22.50
2023-07-24T08:30:56.685Z,22.51
2023-07-24T08:33:23.570Z,22.49
2023-07-24T08:36:00.460Z,22.45
2023-07-24T08:38:27.681Z,22.49
2023-07-24T08:41:08.917Z,22.48
2023-07-24T08:43:36.975Z,22.56
2023-07-24T08:46:04.927Z,22.58
2023-07-24T08:48:50.117Z,22.52
2023-07-24T08:51:17.440Z,22.61
2023-07-24T08:53:44.978Z,22.62
2023-07-24T08:56:15.867Z,22.62
2023-07-24T08:58:43.022Z,22.61
2023-07-24T09:01:10.235Z,22.61
2023-07-24T09:03:37.354Z,22.62
2023-07-24T09:06:13.621Z,22.63
2023-07-24T09:08:44.546Z,22.62
2023-07-24T09:11:12.273Z,22.64
2023-07-24T09:13:43.206Z,22.65
2023-07-24T09:16:10.868Z,22.71
2023-07-24T09:18:42.171Z,22.74
2023-07-24T09:21:09.731Z,22.82
2023-07-24T09:23:36.565Z,22.88
2023-07-24T09:26:07.401Z,22.93
2023-07-24T09:28:35.025Z,23.00
2023-07-24T09:31:02.085Z,23.02
2023-07-24T09:33:47.428Z,23.03
2023-07-24T09:36:14.314Z,23.17
2023-07-24T09:38:41.849Z,23.25
2023-07-24T09:41:08.864Z,23.31
2023-07-24T09:43:40.542Z,23.36
2023-07-24T09:46:08.902Z,23.21
2023-07-24T09:48:41.626Z,23.37
2023-07-24T09:51:13.239Z,23.38
2023-07-24T09:53:44.790Z,23.36
2023-07-24T09:56:11.817Z,23.37
2023-07-24T09:58:39.802Z,23.39
2023-07-24T10:01:08.729Z,23.42
2023-07-24T10:03:47.697Z,23.37
2023-07-24T10:06:16.381Z,23.45
2023-07-24T10:08:43.833Z,23.42
2023-07-24T10:11:14.689Z,23.42
2023-07-24T10:13:42.176Z,23.42
2023-07-24T10:16:09.259Z,23.38
2023-07-24T10:18:42.481Z,23.38
2023-07-24T10:21:10.415Z,23.34
2023-07-24T10:23:39.027Z,23.32
2023-07-24T10:26:06.728Z,23.30
2023-07-24T10:28:42.359Z,23.28
2023-07-24T10:31:23.919Z,23.19
2023-07-24T10:33:52.219Z,23.22
2023-07-24T10:36:20.788Z,23.23
2023-07-24T10:38:48.508Z,23.19
2023-07-24T10:41:15.600Z,23.20
2023-07-24T10:43:48.841Z,23.17
2023-07-24T10:46:18.331Z,23.18
2023-07-24T10:48:50.191Z,23.13
2023-07-24T10:51:17.110Z,23.13
2023-07-24T10:53:46.964Z,23.12
2023-07-24T10:56:13.757Z,23.12
2023-07-24T10:58:40.540Z,23.09
2023-07-24T11:01:08.401Z,23.08
2023-07-24T11:03:42.785Z,23.04
2023-07-24T11:06:17.061Z,23.02
2023-07-24T11:08:53.153Z,23.02
2023-07-24T11:11:19.908Z,23.03
2023-07-24T11:13:46.622Z,23.04
2023-07-24T11:16:13.464Z,23.06
2023-07-24T11:18:53.856Z,23.03
2023-07-24T11:21:26.201Z,23.07
2023-07-24T11:23:56.980Z,23.07
2023-07-24T11:26:24.977Z,23.10
2023-07-24T11:28:52.610Z,23.09
2023-07-24T11:31:22.636Z,23.12
2023-07-24T11:33:53.484Z,23.10
2023-07-24T11:36:20.330Z,23.13
2023-07-24T11:38:47.559Z,23.18
2023-07-24T11:41:15.241Z,23.23
2023-07-24T11:43:49.897Z,23.25
2023-07-24T11:46:43.146Z,23.24
2023-07-24T11:49:09.916Z,23.15
2023-07-24T11:51:38.174Z,23.31
2023-07-24T11:54:08.235Z,23.33
2023-07-24T11:56:35.052Z,23.34
2023-07-24T11:59:14.663Z,23.35
2023-07-24T12:01:42.115Z,23.47
2023-07-24T12:04:08.965Z,23.55
2023-07-24T12:06:36.865Z,23.66
2023-07-24T12:09:05.855Z,23.72
2023-07-24T12:11:33.507Z,23.79
2023-07-24T12:14:00.351Z,23.87
2023-07-24T12:16:27.134Z,23.91
2023-07-24T12:18:53.908Z,23.94
2023-07-24T12:21:20.609Z,23.98
2023-07-24T12:23:47.359Z,24.04
2023-07-24T12:26:14.161Z,24.12
2023-07-24T12:28:40.885Z,24.13
2023-07-24T12:31:07.851Z,24.12
2023-07-24T12:33:34.717Z,24.07
2023-07-24T12:36:02.721Z,24.03
2023-07-24T12:38:29.583Z,23.98
2023-07-24T12:40:56.347Z,23.97
2023-07-24T12:43:23.052Z,23.97
2023-07-24T12:45:49.814Z,23.94
2023-07-24T12:48:18.557Z,23.94
2023-07-24T12:50:45.302Z,23.97
2023-07-24T12:53:13.055Z,23.96
2023-07-24T12:55:43.684Z,24.00
2023-07-24T12:58:10.447Z,24.08
2023-07-24T13:00:37.178Z,24.14
2023-07-24T13:03:04.185Z,24.18
2023-07-24T13:05:31.963Z,24.15
2023-07-24T13:07:58.828Z,24.17
2023-07-24T13:10:25.732Z,24.17
2023-07-24T13:12:52.474Z,24.18
2023-07-24T13:15:19.289Z,24.20
2023-07-24T13:17:46.036Z,24.20
2023-07-24T13:20:12.970Z,24.21
2023-07-24T13:22:39.738Z,24.20
2023-07-24T13:25:07.584Z,24.25
2023-07-24T13:27:34.373Z,24.24
2023-07-24T13:30:01.105Z,24.29
2023-07-24T13:32:27.825Z,24.32
2023-07-24T13:34:54.646Z,24.36
2023-07-24T13:37:22.516Z,24.34
2023-07-24T13:39:49.289Z,24.36
2023-07-24T13:42:16.016Z,24.35
2023-07-24T13:44:42.744Z,24.36
2023-07-24T13:47:09.460Z,24.39
2023-07-24T13:49:36.198Z,24.36
2023-07-24T13:52:02.950Z,24.40
2023-07-24T13:54:29.677Z,24.41
2023-07-24T13:56:56.483Z,24.40
2023-07-24T13:59:23.348Z,24.45
2023-07-24T14:01:50.272Z,24.48
2023-07-24T14:04:17.117Z,24.45
2023-07-24T14:06:43.878Z,24.48
2023-07-24T14:09:12.915Z,24.52
2023-07-24T14:11:39.629Z,24.52
2023-07-24T14:14:06.449Z,24.52
2023-07-24T14:16:33.336Z,24.50
2023-07-24T14:19:00.149Z,24.53
2023-07-24T14:21:26.957Z,24.59
2023-07-24T14:23:53.779Z,24.60
2023-07-24T14:26:20.637Z,24.65
2023-07-24T14:28:47.450Z,24.63
2023-07-24T14:31:14.230Z,24.64
2023-07-24T14:33:41.151Z,24.69
2023-07-24T14:36:08.126Z,24.74
2023-07-24T14:38:34.898Z,24.78
2023-07-24T14:41:01.687Z,24.75
2023-07-24T14:43:28.729Z,24.79
2023-07-24T14:45:55.617Z,24.77
2023-07-24T14:48:22.598Z,24.72
2023-07-24T14:50:50.497Z,24.67
2023-07-24T14:53:17.256Z,24.64
2023-07-24T14:55:44.280Z,24.59
2023-07-24T14:58:11.100Z,24.53
2023-07-24T15:00:37.890Z,24.48
2023-07-24T15:03:04.761Z,24.44
2023-07-24T15:05:31.649Z,24.36
2023-07-24T15:07:58.581Z,24.33
2023-07-24T15:10:25.275Z,24.26
2023-07-24T15:12:52.166Z,24.21
2023-07-24T15:15:18.924Z,24.16
2023-07-24T15:17:45.761Z,24.12
2023-07-24T15:20:14.323Z,24.09
2023-07-24T15:22:41.597Z,24.01
2023-07-24T15:25:08.703Z,23.95
2023-07-24T15:27:35.594Z,23.74
2023-07-24T15:30:02.412Z,23.52
2023-07-24T15:32:29.718Z,23.39
2023-07-24T15:34:56.697Z,23.33
2023-07-24T15:37:23.453Z,23.31
2023-07-24T15:39:50.275Z,23.26
2023-07-24T15:42:17.059Z,23.23
2023-07-24T15:44:43.860Z,23.20
2023-07-24T15:47:10.787Z,23.18
2023-07-24T15:49:37.640Z,23.17
2023-07-24T15:52:04.889Z,23.18
2023-07-24T15:54:31.783Z,23.15
2023-07-24T15:56:58.509Z,23.16
2023-07-24T15:59:26.376Z,23.17
2023-07-24T16:01:53.283Z,23.18
2023-07-24T16:04:22.545Z,23.18
2023-07-24T16:06:49.453Z,23.21
2023-07-24T16:09:16.288Z,23.26
2023-07-24T16:11:44.870Z,23.30
2023-07-24T16:14:13.770Z,23.34
2023-07-24T16:16:40.556Z,23.34
2023-07-24T16:19:17.313Z,23.33
2023-07-24T16:21:45.618Z,23.38
2023-07-24T16:24:12.799Z,23.37
2023-07-24T16:26:40.039Z,23.39
2023-07-24T16:29:07.088Z,23.42
2023-07-24T16:31:36.149Z,23.43
2023-07-24T16:34:03.677Z,23.43
2023-07-24T16:36:36.415Z,23.42
2023-07-24T16:39:05.233Z,23.43
2023-07-24T16:41:33.331Z,23.41
2023-07-24T16:44:02.063Z,23.39
2023-07-24T16:46:30.576Z,23.37
2023-07-24T16:48:57.312Z,23.34
2023-07-24T16:51:24.052Z,23.36
2023-07-24T16:53:50.789Z,23.38
2023-07-24T16:56:17.684Z,23.39
2023-07-24T16:58:44.762Z,23.40
2023-07-24T17:01:11.693Z,23.41
2023-07-24T17:03:38.493Z,23.43
2023-07-24T17:06:05.327Z,23.38
2023-07-24T17:08:32.404Z,23.38
2023-07-24T17:10:59.268Z,23.40
2023-07-24T17:13:26.297Z,23.41
2023-07-24T17:15:53.129Z,23.41
2023-07-24T17:18:19.947Z,23.44
2023-07-24T17:20:50.221Z,23.43
2023-07-24T17:23:17.009Z,23.40
2023-07-24T17:25:44.186Z,23.39
2023-07-24T17:28:11.065Z,23.35
2023-07-24T17:30:38.240Z,23.33
2023-07-24T17:33:05.072Z,23.31
2023-07-24T17:35:31.943Z,23.29
2023-07-24T17:37:58.747Z,23.28
2023-07-24T17:40:25.699Z,23.25
2023-07-24T17:42:52.583Z,23.21
2023-07-24T17:45:19.639Z,23.21
2023-07-24T17:47:46.553Z,23.18
2023-07-24T17:50:13.342Z,23.14
2023-07-24T17:52:40.045Z,23.13
2023-07-24T17:55:07.024Z,23.10
2023-07-24T17:57:34.195Z,23.09
2023-07-24T18:00:01.036Z,23.07
2023-07-24T18:02:28.015Z,23.08
2023-07-24T18:04:54.797Z,23.03
2023-07-24T18:07:21.529Z,23.03
2023-07-24T18:09:48.302Z,23.00
2023-07-24T18:12:15.570Z,22.96
2023-07-24T18:14:42.393Z,22.92
2023-07-24T18:17:09.159Z,22.95
2023-07-24T18:19:35.891Z,22.88
2023-07-24T18:22:02.607Z,22.87
2023-07-24T18:24:29.348Z,22.84
2023-07-24T18:26:56.468Z,22.81
2023-07-24T18:29:23.182Z,22.80
2023-07-24T18:31:50.088Z,22.77
2023-07-24T18:34:17.001Z,22.73
2023-07-24T18:36:43.858Z,22.72
2023-07-24T18:39:10.592Z,22.70
2023-07-24T18:41:37.426Z,22.68
2023-07-24T18:44:04.133Z,22.63
2023-07-24T18:46:30.960Z,22.60
2023-07-24T18:48:57.798Z,22.59
2023-07-24T18:51:24.529Z,22.56
2023-07-24T18:53:52.828Z,22.52
2023-07-24T18:56:19.845Z,22.51
2023-07-24T18:58:49.666Z,22.50
2023-07-24T19:01:16.592Z,22.47
2023-07-24T19:03:44.401Z,22.46
2023-07-24T19:06:11.346Z,22.42
2023-07-24T19:08:38.138Z,22.40
2023-07-24T19:11:05.132Z,22.38
2023-07-24T19:13:36.473Z,22.33
2023-07-24T19:16:04.205Z,22.28
2023-07-24T19:18:31.213Z,22.23
2023-07-24T19:20:58.103Z,22.19
2023-07-24T19:23:24.940Z,22.16
2023-07-24T19:25:51.828Z,22.11
2023-07-24T19:28:18.648Z,22.10
2023-07-24T19:30:52.483Z,22.06
2023-07-24T19:33:19.386Z,22.07
2023-07-24T19:35:46.166Z,22.04
2023-07-24T19:38:13.111Z,22.03
2023-07-24T19:40:40.354Z,22.02
2023-07-24T19:43:07.120Z,21.99
2023-07-24T19:45:39.352Z,21.96
2023-07-24T19:48:06.530Z,21.95
2023-07-24T19:50:33.359Z,21.95
2023-07-24T19:53:00.136Z,21.95
2023-07-24T19:55:26.837Z,21.94
2023-07-24T19:57:53.598Z,21.90
2023-07-24T20:00:20.706Z,21.91
2023-07-24T20:02:48.072Z,21.88
2023-07-24T20:05:14.942Z,21.88
2023-07-24T20:07:41.684Z,21.87
2023-07-24T20:10:08.648Z,21.86
2023-07-24T20:12:35.494Z,21.85
2023-07-24T20:15:02.596Z,21.83
2023-07-24T20:17:29.436Z,21.82
2023-07-24T20:19:56.141Z,21.80
2023-07-24T20:22:22.879Z,21.79
2023-07-24T20:24:49.705Z,21.79
2023-07-24T20:27:16.518Z,21.75
2023-07-24T20:29:43.283Z,21.75
2023-07-24T20:32:10.215Z,21.72
2023-07-24T20:34:37.079Z,21.70
2023-07-24T20:37:03.988Z,21.71
2023-07-24T20:39:30.799Z,21.70
2023-07-24T20:41:57.555Z,21.69
2023-07-24T20:44:24.244Z,21.68
2023-07-24T20:46:51.016Z,21.68
2023-07-24T20:49:17.729Z,21.69
2023-07-24T20:51:44.455Z,21.67
2023-07-24T20:54:11.212Z,21.68
2023-07-24T20:56:38.237Z,21.66
2023-07-24T20:59:05.013Z,21.62
2023-07-24T21:01:32.034Z,21.62
2023-07-24T21:03:58.880Z,21.57
2023-07-24T21:06:25.692Z,21.53
2023-07-24T21:08:52.495Z,21.51
2023-07-24T21:11:19.399Z,21.50
2023-07-24T21:13:46.136Z,21.51
2023-07-24T21:16:12.885Z,21.50
2023-07-24T21:18:39.682Z,21.50
2023-07-24T21:21:08.504Z,21.50
2023-07-24T21:23:35.525Z,21.49
2023-07-24T21:26:02.422Z,21.49
2023-07-24T21:28:29.264Z,21.45
2023-07-24T21:30:56.160Z,21.43
2023-07-24T21:33:22.994Z,21.40
2023-07-24T21:36:02.798Z,21.30
2023-07-24T21:38:29.855Z,21.33
2023-07-24T21:40:56.765Z,21.32
2023-07-24T21:43:23.827Z,21.31
2023-07-24T21:45:52.643Z,21.30
2023-07-24T21:48:19.385Z,21.27
2023-07-24T21:50:52.281Z,21.27
2023-07-24T21:53:19.130Z,21.26
2023-07-24T21:55:45.941Z,21.27
2023-07-24T21:58:12.781Z,21.27
2023-07-24T22:00:39.654Z,21.27
2023-07-24T22:03:06.565Z,21.25
2023-07-24T22:05:33.499Z,21.24
2023-07-24T22:08:00.316Z,21.22
2023-07-24T22:10:28.221Z,21.21
2023-07-24T22:12:55.064Z,21.19
2023-07-24T22:15:21.813Z,21.19
2023-07-24T22:17:48.608Z,21.20
2023-07-24T22:20:26.961Z,21.13
2023-07-24T22:22:57.612Z,21.15
2023-07-24T22:25:24.633Z,21.12
2023-07-24T22:27:51.342Z,21.14
2023-07-24T22:30:18.103Z,21.11
2023-07-24T22:32:44.983Z,21.13
2023-07-24T22:35:11.808Z,21.12
2023-07-24T22:37:38.583Z,21.12
2023-07-24T22:40:06.005Z,21.09
2023-07-24T22:42:32.920Z,21.08
2023-07-24T22:44:59.700Z,21.08
2023-07-24T22:47:26.587Z,21.06
2023-07-24T22:49:53.435Z,21.03
2023-07-24T22:52:20.300Z,21.00
2023-07-24T22:54:47.009Z,21.00
2023-07-24T22:57:13.728Z,20.98
2023-07-24T22:59:40.484Z,20.96
2023-07-24T23:02:07.285Z,20.93
2023-07-24T23:04:34.005Z,20.95
2023-07-24T23:07:00.847Z,20.92
2023-07-24T23:09:46.391Z,20.84
2023-07-24T23:13:27.918Z,20.82
2023-07-24T23:16:35.117Z,20.86
2023-07-24T23:19:20.510Z,20.88
2023-07-24T23:21:47.331Z,20.88
2023-07-24T23:24:14.193Z,20.92
2023-07-24T23:26:41.035Z,20.89
2023-07-24T23:29:07.929Z,20.87
2023-07-24T23:31:34.724Z,20.90
2023-07-24T23:34:01.588Z,20.90
2023-07-24T23:36:28.495Z,20.90
2023-07-24T23:38:55.360Z,20.91
2023-07-24T23:41:22.165Z,20.89
2023-07-24T23:43:48.916Z,20.86
2023-07-24T23:46:16.580Z,20.87
2023-07-24T23:48:44.164Z,20.84
2023-07-24T23:51:21.899Z,20.76
2023-07-24T23:53:49.236Z,20.79
2023-07-24T23:56:16.261Z,20.71
2023-07-24T23:58:43.047Z,20.71
